Adventuress — WCX8691 — position and weather

sailwx.info

Track history (hours):
 
Tides and Currents Weather Stations Pressure Air Temp Water Temp Dewpoint Dewpoint Depression Visibility Wind Speed Wind Dir Waves Ship Positions

Adventuress (United States)

Ship's website: http://www.soundexp.org/

More information available from US FCC via Universal Licensing System and Coast Guard Vessel Documentation Center.

Last reported at 2014-Jul-22 19:32 UTC. Time now 2014-Jul-22 19:53 UTC.
Position N 48°38' W 122°52'.

Length 43 m.

Type: Passenger vessel. MMSI: 367323180.

Date/timePositionNaut miles runAvg speedWind from/ knotsBaromVisibWave heightAir tempDewpointWater temp
2014-Jul-22 19:32N 48°38' W 122°52'3 3.2
2014-Jul-22 18:33N 48°35' W 122°53'1 1.1
2014-Jul-22 17:33N 48°34' W 122°51'4 2.8
2014-Jul-22 16:09N 48°31' W 122°47'0 0.0
2014-Jul-22 03:24N 48°31' W 122°47'0 0.0
2014-Jul-22 02:15N 48°31' W 122°47'2 1.3
2014-Jul-22 00:31N 48°31' W 122°44'3 2.8
2014-Jul-21 23:28N 48°31' W 122°40'1 0.7
2014-Jul-21 22:32N 48°31' W 122°39'2 1.6
2014-Jul-21 21:33N 48°31' W 122°36'0 0.0
2014-Jul-21 20:33N 48°31' W 122°36'0 0.0
2014-Jul-21 20:09N 48°31' W 122°36'0 0.0
2014-Jul-21 19:21N 48°31' W 122°36'0 0.0
2014-Jul-21 18:33N 48°31' W 122°36'0 0.0
2014-Jul-21 17:33N 48°31' W 122°36'0 0.0
2014-Jul-21 16:33N 48°31' W 122°36'0 0.0
2014-Jul-21 15:27N 48°31' W 122°36'0 0.0
2014-Jul-21 14:33N 48°31' W 122°36'0 0.0
2014-Jul-21 13:33N 48°31' W 122°36'0 0.0
2014-Jul-21 12:33N 48°31' W 122°36'0 0.0
2014-Jul-21 11:33N 48°31' W 122°36'0 0.0
2014-Jul-21 10:27N 48°31' W 122°36'0 0.0
2014-Jul-21 09:33N 48°31' W 122°36'0 0.0
2014-Jul-21 08:27N 48°31' W 122°36'0 0.0
2014-Jul-21 07:33N 48°31' W 122°36'0 0.0
2014-Jul-21 06:33N 48°31' W 122°36'0 0.0
2014-Jul-21 05:15N 48°31' W 122°36'0 0.0
2014-Jul-21 04:33N 48°31' W 122°36'0 0.0
2014-Jul-21 03:33N 48°31' W 122°36'0 0.0
2014-Jul-21 02:33N 48°31' W 122°36'0 0.0
2014-Jul-21 01:33N 48°31' W 122°36'0 0.0
2014-Jul-21 00:27N 48°31' W 122°36'0 0.0
2014-Jul-20 23:33N 48°31' W 122°36'0 0.0
2014-Jul-20 22:33N 48°31' W 122°36'0 0.0
2014-Jul-20 21:33N 48°31' W 122°36'1 1.2
2014-Jul-20 20:33N 48°31' W 122°35'1 0.6
2014-Jul-20 19:33N 48°31' W 122°34'1 1.3
2014-Jul-20 18:33N 48°31' W 122°36'0 0.4
2014-Jul-20 17:28N 48°31' W 122°36'0 0.0
2014-Jul-20 16:28N 48°31' W 122°36'0 0.0
2014-Jul-20 15:28N 48°31' W 122°36'0 0.0
2014-Jul-20 14:28N 48°31' W 122°36'0 0.0
2014-Jul-20 13:22N 48°31' W 122°36'0 0.0
2014-Jul-20 12:28N 48°31' W 122°36'0 0.0
2014-Jul-20 11:28N 48°31' W 122°36'0 0.0
2014-Jul-20 10:28N 48°31' W 122°36'0 0.0
2014-Jul-20 09:22N 48°31' W 122°36'0 0.0
2014-Jul-20 08:28N 48°31' W 122°36'0 0.0
2014-Jul-20 07:28N 48°31' W 122°36'0 0.0
2014-Jul-20 06:28N 48°31' W 122°36'0 0.0
2014-Jul-20 05:22N 48°31' W 122°36'0 0.0
2014-Jul-20 04:28N 48°31' W 122°36'0 0.0
2014-Jul-20 03:28N 48°31' W 122°36'0 0.0
2014-Jul-20 02:22N 48°31' W 122°36'0 0.0
2014-Jul-20 01:28N 48°31' W 122°36'1 1.0
2014-Jul-20 00:33N 48°31' W 122°35'0 0.4
2014-Jul-19 23:33N 48°31' W 122°35'0 0.3
2014-Jul-19 22:33N 48°31' W 122°35'1 0.9
2014-Jul-19 21:32N 48°31' W 122°36'1 0.9
2014-Jul-19 20:33N 48°31' W 122°35'0 0.4
2014-Jul-19 19:33N 48°31' W 122°36'1 0.6
2014-Jul-19 18:33N 48°31' W 122°35'1 0.6
2014-Jul-19 17:33N 48°31' W 122°36'0 0.0
2014-Jul-19 16:27N 48°31' W 122°36'0 0.0
2014-Jul-19 15:33N 48°31' W 122°36'0 0.0
2014-Jul-19 14:33N 48°31' W 122°36'0 0.0
2014-Jul-19 13:33N 48°31' W 122°36'0 0.0
2014-Jul-19 12:33N 48°31' W 122°36'0 0.0
2014-Jul-19 11:33N 48°31' W 122°36'0 0.0
2014-Jul-19 10:27N 48°31' W 122°36'0 0.0
2014-Jul-19 09:33N 48°31' W 122°36'0 0.0
2014-Jul-19 08:33N 48°31' W 122°36'0 0.0
2014-Jul-19 07:33N 48°31' W 122°36'0 0.0
2014-Jul-19 06:33N 48°31' W 122°36'0 0.0
2014-Jul-19 05:27N 48°31' W 122°36'0 0.0
2014-Jul-19 04:33N 48°31' W 122°36'0 0.0
2014-Jul-19 03:33N 48°31' W 122°36'0 0.0
2014-Jul-19 02:33N 48°31' W 122°36'0 0.0
2014-Jul-19 01:33N 48°31' W 122°36'0 0.0
2014-Jul-19 00:33N 48°31' W 122°36'0 0.0
2014-Jul-18 23:33N 48°31' W 122°36'0 0.0
2014-Jul-18 22:33N 48°31' W 122°36'0 0.0
2014-Jul-18 21:33N 48°31' W 122°36'0 0.0
2014-Jul-18 20:33N 48°31' W 122°36'0 0.4
2014-Jul-18 19:34N 48°31' W 122°36'1 1.1
2014-Jul-18 18:33N 48°31' W 122°34'1 0.7
2014-Jul-18 17:34N 48°32' W 122°34'3 0.2
2014-Jul-18 00:33N 48°35' W 122°33'5 4.6
2014-Jul-17 23:28N 48°38' W 122°39'16 0.6
2014-Jul-16 19:33N 48°38' W 123°03'4 1.2
2014-Jul-16 16:28N 48°36' W 122°58'2 0.1
2014-Jul-16 05:14N 48°35' W 122°56'0 0.0
2014-Jul-16 04:17N 48°35' W 122°56'0 0.0
2014-Jul-16 02:32N 48°35' W 122°56'0 0.2
2014-Jul-16 00:24N 48°35' W 122°56'2 2.3
2014-Jul-15 23:33N 48°34' W 122°54'5 4.7
2014-Jul-15 22:33N 48°30' W 122°58'6 6.2
2014-Jul-15 21:33N 48°25' W 122°53'4 0.7
2014-Jul-15 16:33N 48°27' W 122°48'4 3.4
2014-Jul-15 15:31N 48°30' W 122°50'0 0.0
2014-Jul-15 10:10N 48°30' W 122°50'0 0.0
2014-Jul-15 09:10N 48°30' W 122°50'0 0.0
2014-Jul-15 08:19N 48°30' W 122°50'0 0.0
2014-Jul-15 06:22N 48°30' W 122°50'0 0.0
2014-Jul-15 05:17N 48°30' W 122°50'0 0.0
2014-Jul-15 04:16N 48°30' W 122°50'0 0.0
2014-Jul-15 02:31N 48°30' W 122°50'0 0.0
2014-Jul-15 01:19N 48°30' W 122°50'2 2.0
2014-Jul-15 00:33N 48°31' W 122°51'0 0.4
2014-Jul-14 23:33N 48°31' W 122°51'3 2.5
2014-Jul-14 22:32N 48°32' W 122°47'5 4.5
2014-Jul-14 21:31N 48°31' W 122°40'3 2.9
2014-Jul-14 20:33N 48°31' W 122°36'0 0.0
2014-Jul-14 19:33N 48°31' W 122°36'0 0.0
2014-Jul-14 18:32N 48°31' W 122°36'0 0.0
2014-Jul-14 17:33N 48°31' W 122°36'0 0.4
2014-Jul-14 16:32N 48°31' W 122°36'0 0.0
2014-Jul-14 15:32N 48°31' W 122°36'0 0.0
2014-Jul-14 14:32N 48°31' W 122°36'0 0.0
2014-Jul-14 13:32N 48°31' W 122°36'0 0.0
2014-Jul-14 12:32N 48°31' W 122°36'0 0.0
2014-Jul-14 11:32N 48°31' W 122°36'0 0.0
2014-Jul-14 10:26N 48°31' W 122°36'0 0.0
2014-Jul-14 09:32N 48°31' W 122°36'0 0.0
2014-Jul-14 08:32N 48°31' W 122°36'0 0.0
2014-Jul-14 07:32N 48°31' W 122°36'0 0.0
2014-Jul-14 06:26N 48°31' W 122°36'0 0.0
2014-Jul-14 05:32N 48°31' W 122°36'0 0.0
2014-Jul-14 04:32N 48°31' W 122°36'0 0.0
2014-Jul-14 03:32N 48°31' W 122°36'0 0.0
2014-Jul-14 02:08N 48°31' W 122°36'0 0.0
2014-Jul-14 01:32N 48°31' W 122°36'0 0.5
2014-Jul-14 00:33N 48°31' W 122°36'1 0.7
2014-Jul-13 23:33N 48°31' W 122°35'1 0.6
2014-Jul-13 22:33N 48°31' W 122°36'1 0.6
2014-Jul-13 21:23N 48°31' W 122°36'0 0.0
2014-Jul-13 20:29N 48°31' W 122°36'0 0.0
2014-Jul-13 19:29N 48°31' W 122°36'0 0.0
2014-Jul-13 18:29N 48°31' W 122°36'0 0.0
2014-Jul-13 17:29N 48°31' W 122°36'0 0.0
2014-Jul-13 16:29N 48°31' W 122°36'0 0.0
2014-Jul-13 15:29N 48°31' W 122°36'0 0.0
2014-Jul-13 14:23N 48°31' W 122°36'0 0.0
2014-Jul-13 13:29N 48°31' W 122°36'0 0.0
2014-Jul-13 12:29N 48°31' W 122°36'0 0.0
2014-Jul-13 11:29N 48°31' W 122°36'0 0.0
2014-Jul-13 10:29N 48°31' W 122°36'0 0.0
2014-Jul-13 09:29N 48°31' W 122°36'0 0.0
2014-Jul-13 08:29N 48°31' W 122°36'0 0.0
2014-Jul-13 07:29N 48°31' W 122°36'0 0.0
2014-Jul-13 06:29N 48°31' W 122°36'0 0.0
2014-Jul-13 05:29N 48°31' W 122°36'0 0.0
2014-Jul-13 04:29N 48°31' W 122°36'0 0.0
2014-Jul-13 03:23N 48°31' W 122°36'0 0.0
2014-Jul-13 02:29N 48°31' W 122°36'0 0.0
2014-Jul-13 01:29N 48°31' W 122°36'0 0.0
2014-Jul-13 00:29N 48°31' W 122°36'0 0.0
2014-Jul-12 23:29N 48°31' W 122°36'0 0.0
2014-Jul-12 22:29N 48°31' W 122°36'0 0.0
2014-Jul-12 21:33N 48°31' W 122°36'2 1.6
2014-Jul-12 20:33N 48°32' W 122°34'  
Track history (hours):
 
Tides and Currents Weather Stations Pressure Air Temp Water Temp Dewpoint Dewpoint Depression Visibility Wind Speed Wind Dir Waves Ship Positions

Adventuress (United States)

Ship's website: http://www.soundexp.org/

More information available from US FCC via Universal Licensing System and Coast Guard Vessel Documentation Center.

Last reported at 2014-Jul-22 19:32 UTC. Time now 2014-Jul-22 19:53 UTC.
Position N 48°38' W 122°52'.

Length 43 m.

Type: Passenger vessel. MMSI: 367323180.

Date/timePositionNaut miles runAvg speedWind from/ knotsBaromVisibWave heightAir tempDewpointWater temp
2014-Jul-22 19:32N 48°38' W 122°52'3 3.2
2014-Jul-22 18:33N 48°35' W 122°53'1 1.1
2014-Jul-22 17:33N 48°34' W 122°51'4 2.8
2014-Jul-22 16:09N 48°31' W 122°47'0 0.0
2014-Jul-22 03:24N 48°31' W 122°47'0 0.0
2014-Jul-22 02:15N 48°31' W 122°47'2 1.3
2014-Jul-22 00:31N 48°31' W 122°44'3 2.8
2014-Jul-21 23:28N 48°31' W 122°40'1 0.7
2014-Jul-21 22:32N 48°31' W 122°39'2 1.6
2014-Jul-21 21:33N 48°31' W 122°36'0 0.0
2014-Jul-21 20:33N 48°31' W 122°36'0 0.0
2014-Jul-21 20:09N 48°31' W 122°36'0 0.0
2014-Jul-21 19:21N 48°31' W 122°36'0 0.0
2014-Jul-21 18:33N 48°31' W 122°36'0 0.0
2014-Jul-21 17:33N 48°31' W 122°36'0 0.0
2014-Jul-21 16:33N 48°31' W 122°36'0 0.0
2014-Jul-21 15:27N 48°31' W 122°36'0 0.0
2014-Jul-21 14:33N 48°31' W 122°36'0 0.0
2014-Jul-21 13:33N 48°31' W 122°36'0 0.0
2014-Jul-21 12:33N 48°31' W 122°36'0 0.0
2014-Jul-21 11:33N 48°31' W 122°36'0 0.0
2014-Jul-21 10:27N 48°31' W 122°36'0 0.0
2014-Jul-21 09:33N 48°31' W 122°36'0 0.0
2014-Jul-21 08:27N 48°31' W 122°36'0 0.0
2014-Jul-21 07:33N 48°31' W 122°36'0 0.0
2014-Jul-21 06:33N 48°31' W 122°36'0 0.0
2014-Jul-21 05:15N 48°31' W 122°36'0 0.0
2014-Jul-21 04:33N 48°31' W 122°36'0 0.0
2014-Jul-21 03:33N 48°31' W 122°36'0 0.0
2014-Jul-21 02:33N 48°31' W 122°36'0 0.0
2014-Jul-21 01:33N 48°31' W 122°36'0 0.0
2014-Jul-21 00:27N 48°31' W 122°36'0 0.0
2014-Jul-20 23:33N 48°31' W 122°36'0 0.0
2014-Jul-20 22:33N 48°31' W 122°36'0 0.0
2014-Jul-20 21:33N 48°31' W 122°36'1 1.2
2014-Jul-20 20:33N 48°31' W 122°35'1 0.6
2014-Jul-20 19:33N 48°31' W 122°34'1 1.3
2014-Jul-20 18:33N 48°31' W 122°36'0 0.4
2014-Jul-20 17:28N 48°31' W 122°36'0 0.0
2014-Jul-20 16:28N 48°31' W 122°36'0 0.0
2014-Jul-20 15:28N 48°31' W 122°36'0 0.0
2014-Jul-20 14:28N 48°31' W 122°36'0 0.0
2014-Jul-20 13:22N 48°31' W 122°36'0 0.0
2014-Jul-20 12:28N 48°31' W 122°36'0 0.0
2014-Jul-20 11:28N 48°31' W 122°36'0 0.0
2014-Jul-20 10:28N 48°31' W 122°36'0 0.0
2014-Jul-20 09:22N 48°31' W 122°36'0 0.0
2014-Jul-20 08:28N 48°31' W 122°36'0 0.0
2014-Jul-20 07:28N 48°31' W 122°36'0 0.0
2014-Jul-20 06:28N 48°31' W 122°36'0 0.0
2014-Jul-20 05:22N 48°31' W 122°36'0 0.0
2014-Jul-20 04:28N 48°31' W 122°36'0 0.0
2014-Jul-20 03:28N 48°31' W 122°36'0 0.0
2014-Jul-20 02:22N 48°31' W 122°36'0 0.0
2014-Jul-20 01:28N 48°31' W 122°36'1 1.0
2014-Jul-20 00:33N 48°31' W 122°35'0 0.4
2014-Jul-19 23:33N 48°31' W 122°35'0 0.3
2014-Jul-19 22:33N 48°31' W 122°35'1 0.9
2014-Jul-19 21:32N 48°31' W 122°36'1 0.9
2014-Jul-19 20:33N 48°31' W 122°35'0 0.4
2014-Jul-19 19:33N 48°31' W 122°36'1 0.6
2014-Jul-19 18:33N 48°31' W 122°35'1 0.6
2014-Jul-19 17:33N 48°31' W 122°36'0 0.0
2014-Jul-19 16:27N 48°31' W 122°36'0 0.0
2014-Jul-19 15:33N 48°31' W 122°36'0 0.0
2014-Jul-19 14:33N 48°31' W 122°36'0 0.0
2014-Jul-19 13:33N 48°31' W 122°36'0 0.0
2014-Jul-19 12:33N 48°31' W 122°36'0 0.0
2014-Jul-19 11:33N 48°31' W 122°36'0 0.0
2014-Jul-19 10:27N 48°31' W 122°36'0 0.0
2014-Jul-19 09:33N 48°31' W 122°36'0 0.0
2014-Jul-19 08:33N 48°31' W 122°36'0 0.0
2014-Jul-19 07:33N 48°31' W 122°36'0 0.0
2014-Jul-19 06:33N 48°31' W 122°36'0 0.0
2014-Jul-19 05:27N 48°31' W 122°36'0 0.0
2014-Jul-19 04:33N 48°31' W 122°36'0 0.0
2014-Jul-19 03:33N 48°31' W 122°36'0 0.0
2014-Jul-19 02:33N 48°31' W 122°36'0 0.0
2014-Jul-19 01:33N 48°31' W 122°36'0 0.0
2014-Jul-19 00:33N 48°31' W 122°36'0 0.0
2014-Jul-18 23:33N 48°31' W 122°36'0 0.0
2014-Jul-18 22:33N 48°31' W 122°36'0 0.0
2014-Jul-18 21:33N 48°31' W 122°36'0 0.0
2014-Jul-18 20:33N 48°31' W 122°36'0 0.4
2014-Jul-18 19:34N 48°31' W 122°36'1 1.1
2014-Jul-18 18:33N 48°31' W 122°34'1 0.7
2014-Jul-18 17:34N 48°32' W 122°34'3 0.2
2014-Jul-18 00:33N 48°35' W 122°33'5 4.6
2014-Jul-17 23:28N 48°38' W 122°39'16 0.6
2014-Jul-16 19:33N 48°38' W 123°03'4 1.2
2014-Jul-16 16:28N 48°36' W 122°58'2 0.1
2014-Jul-16 05:14N 48°35' W 122°56'0 0.0
2014-Jul-16 04:17N 48°35' W 122°56'0 0.0
2014-Jul-16 02:32N 48°35' W 122°56'0 0.2
2014-Jul-16 00:24N 48°35' W 122°56'2 2.3
2014-Jul-15 23:33N 48°34' W 122°54'5 4.7
2014-Jul-15 22:33N 48°30' W 122°58'6 6.2
2014-Jul-15 21:33N 48°25' W 122°53'4 0.7
2014-Jul-15 16:33N 48°27' W 122°48'4 3.4
2014-Jul-15 15:31N 48°30' W 122°50'0 0.0
2014-Jul-15 10:10N 48°30' W 122°50'0 0.0
2014-Jul-15 09:10N 48°30' W 122°50'0 0.0
2014-Jul-15 08:19N 48°30' W 122°50'0 0.0
2014-Jul-15 06:22N 48°30' W 122°50'0 0.0
2014-Jul-15 05:17N 48°30' W 122°50'0 0.0
2014-Jul-15 04:16N 48°30' W 122°50'0 0.0
2014-Jul-15 02:31N 48°30' W 122°50'0 0.0
2014-Jul-15 01:19N 48°30' W 122°50'2 2.0
2014-Jul-15 00:33N 48°31' W 122°51'0 0.4
2014-Jul-14 23:33N 48°31' W 122°51'3 2.5
2014-Jul-14 22:32N 48°32' W 122°47'5 4.5
2014-Jul-14 21:31N 48°31' W 122°40'3 2.9
2014-Jul-14 20:33N 48°31' W 122°36'0 0.0
2014-Jul-14 19:33N 48°31' W 122°36'0 0.0
2014-Jul-14 18:32N 48°31' W 122°36'0 0.0
2014-Jul-14 17:33N 48°31' W 122°36'0 0.4
2014-Jul-14 16:32N 48°31' W 122°36'0 0.0
2014-Jul-14 15:32N 48°31' W 122°36'0 0.0
2014-Jul-14 14:32N 48°31' W 122°36'0 0.0
2014-Jul-14 13:32N 48°31' W 122°36'0 0.0
2014-Jul-14 12:32N 48°31' W 122°36'0 0.0
2014-Jul-14 11:32N 48°31' W 122°36'0 0.0
2014-Jul-14 10:26N 48°31' W 122°36'0 0.0
2014-Jul-14 09:32N 48°31' W 122°36'0 0.0
2014-Jul-14 08:32N 48°31' W 122°36'0 0.0
2014-Jul-14 07:32N 48°31' W 122°36'0 0.0
2014-Jul-14 06:26N 48°31' W 122°36'0 0.0
2014-Jul-14 05:32N 48°31' W 122°36'0 0.0
2014-Jul-14 04:32N 48°31' W 122°36'0 0.0
2014-Jul-14 03:32N 48°31' W 122°36'0 0.0
2014-Jul-14 02:08N 48°31' W 122°36'0 0.0
2014-Jul-14 01:32N 48°31' W 122°36'0 0.5
2014-Jul-14 00:33N 48°31' W 122°36'1 0.7
2014-Jul-13 23:33N 48°31' W 122°35'1 0.6
2014-Jul-13 22:33N 48°31' W 122°36'1 0.6
2014-Jul-13 21:23N 48°31' W 122°36'0 0.0
2014-Jul-13 20:29N 48°31' W 122°36'0 0.0
2014-Jul-13 19:29N 48°31' W 122°36'0 0.0
2014-Jul-13 18:29N 48°31' W 122°36'0 0.0
2014-Jul-13 17:29N 48°31' W 122°36'0 0.0
2014-Jul-13 16:29N 48°31' W 122°36'0 0.0
2014-Jul-13 15:29N 48°31' W 122°36'0 0.0
2014-Jul-13 14:23N 48°31' W 122°36'0 0.0
2014-Jul-13 13:29N 48°31' W 122°36'0 0.0
2014-Jul-13 12:29N 48°31' W 122°36'0 0.0
2014-Jul-13 11:29N 48°31' W 122°36'0 0.0
2014-Jul-13 10:29N 48°31' W 122°36'0 0.0
2014-Jul-13 09:29N 48°31' W 122°36'0 0.0
2014-Jul-13 08:29N 48°31' W 122°36'0 0.0
2014-Jul-13 07:29N 48°31' W 122°36'0 0.0
2014-Jul-13 06:29N 48°31' W 122°36'0 0.0
2014-Jul-13 05:29N 48°31' W 122°36'0 0.0
2014-Jul-13 04:29N 48°31' W 122°36'0 0.0
2014-Jul-13 03:23N 48°31' W 122°36'0 0.0
2014-Jul-13 02:29N 48°31' W 122°36'0 0.0
2014-Jul-13 01:29N 48°31' W 122°36'0 0.0
2014-Jul-13 00:29N 48°31' W 122°36'0 0.0
2014-Jul-12 23:29N 48°31' W 122°36'0 0.0
2014-Jul-12 22:29N 48°31' W 122°36'0 0.0
2014-Jul-12 21:33N 48°31' W 122°36'2 1.6
2014-Jul-12 20:33N 48°32' W 122°34'  

Dump ship's entire track history